Time,TemperatureF,DewpointF,PressureIn,WindDirection,WindDirectionDegrees,WindSpeedMPH,WindSpeedGustMPH,Humidity,HourlyPrecipIn,Conditions,Clouds,dailyrainin,SolarRadiationWatts/m^2,SoftwareType,DateUTC
2013-09-26 00:06:00,41.4,33.0,29.89,WNW,295,7.0,-999.0,73,-99.99,,,0.00,0,weatherlink.com 1.10,2013-09-26 07:06:00,
2013-09-26 00:21:00,41.3,33.0,29.89,WNW,291,7.0,-999.0,72,-99.99,,,0.00,0,weatherlink.com 1.10,2013-09-26 07:21:00,
2013-09-26 00:36:00,41.4,33.0,29.89,WNW,288,8.0,-999.0,72,-99.99,,,0.00,0,weatherlink.com 1.10,2013-09-26 07:36:00,
2013-09-26 00:51:00,41.1,33.0,29.89,WNW,284,8.0,-999.0,72,-99.99,,,0.00,0,weatherlink.com 1.10,2013-09-26 07:51:00,
2013-09-26 01:06:00,41.0,33.0,29.90,WNW,285,5.0,-999.0,72,-99.99,,,0.00,0,weatherlink.com 1.10,2013-09-26 08:06:00,
2013-09-26 01:21:00,41.2,32.0,29.90,WNW,284,7.0,-999.0,71,-99.99,,,0.00,0,weatherlink.com 1.10,2013-09-26 08:21:00,
2013-09-26 01:36:00,41.1,32.0,29.89,West,281,9.0,-999.0,71,-99.99,,,0.00,0,weatherlink.com 1.10,2013-09-26 08:36:00,
2013-09-26 01:51:00,41.3,32.0,29.90,West,279,6.0,-999.0,70,-99.99,,,0.00,0,weatherlink.com 1.10,2013-09-26 08:51:00,
2013-09-26 02:06:00,41.1,32.0,29.89,WNW,286,7.0,-999.0,70,-99.99,,,0.00,0,weatherlink.com 1.10,2013-09-26 09:06:00,
2013-09-26 02:21:00,41.4,32.0,29.89,WNW,290,7.0,-999.0,69,-99.99,,,0.00,0,weatherlink.com 1.10,2013-09-26 09:21:00,
2013-09-26 02:36:00,41.1,32.0,29.90,WNW,298,4.0,-999.0,69,-99.99,,,0.00,0,weatherlink.com 1.10,2013-09-26 09:36:00,
2013-09-26 02:51:00,41.0,32.0,29.90,WNW,296,7.0,-999.0,69,-99.99,,,0.00,0,weatherlink.com 1.10,2013-09-26 09:51:00,
2013-09-26 03:06:00,40.8,32.0,29.90,WNW,294,6.0,-999.0,70,-99.99,,,0.00,0,weatherlink.com 1.10,2013-09-26 10:06:00,
2013-09-26 03:21:00,40.6,32.0,29.90,WNW,294,7.0,-999.0,70,-99.99,,,0.00,0,weatherlink.com 1.10,2013-09-26 10:21:00,
2013-09-26 03:36:00,40.4,32.0,29.90,WNW,294,3.0,-999.0,71,-99.99,,,0.00,0,weatherlink.com 1.10,2013-09-26 10:36:00,
2013-09-26 03:51:00,39.8,32.0,29.90,WNW,295,7.0,-999.0,73,-99.99,,,0.00,0,weatherlink.com 1.10,2013-09-26 10:51:00,
2013-09-26 04:06:00,39.5,32.0,29.90,WNW,299,5.0,-999.0,73,-99.99,,,0.00,0,weatherlink.com 1.10,2013-09-26 11:06:00,
2013-09-26 04:21:00,38.8,32.0,29.90,WNW,299,0.0,-999.0,76,-99.99,,,0.00,0,weatherlink.com 1.10,2013-09-26 11:21:00,
2013-09-26 04:36:00,38.5,32.0,29.91,WNW,299,1.0,-999.0,77,-99.99,,,0.00,0,weatherlink.com 1.10,2013-09-26 11:36:00,
2013-09-26 04:51:00,38.2,32.0,29.91,WNW,299,0.0,-999.0,78,-99.99,,,0.00,0,weatherlink.com 1.10,2013-09-26 11:51:00,
2013-09-26 05:06:00,37.9,32.0,29.91,WNW,299,0.0,-999.0,80,-99.99,,,0.00,0,weatherlink.com 1.10,2013-09-26 12:06:00,
2013-09-26 05:21:00,37.4,32.0,29.91,WNW,299,0.0,-999.0,82,-99.99,,,0.00,0,weatherlink.com 1.10,2013-09-26 12:21:00,
2013-09-26 05:36:00,37.3,32.0,29.91,WNW,299,0.0,-999.0,81,-99.99,,,0.00,0,weatherlink.com 1.10,2013-09-26 12:36:00,
2013-09-26 05:51:00,37.5,32.0,29.91,WNW,299,1.0,-999.0,80,-99.99,,,0.00,0,weatherlink.com 1.10,2013-09-26 12:51:00,
2013-09-26 06:06:00,37.6,32.0,29.92,WNW,299,4.0,-999.0,81,-99.99,,,0.00,0,weatherlink.com 1.10,2013-09-26 13:06:00,
2013-09-26 06:21:00,38.2,32.0,29.92,WNW,299,2.0,-999.0,77,-99.99,,,0.00,0,weatherlink.com 1.10,2013-09-26 13:21:00,
2013-09-26 06:36:00,38.0,32.0,29.93,WNW,299,3.0,-999.0,78,-99.99,,,0.00,0,weatherlink.com 1.10,2013-09-26 13:36:00,
2013-09-26 06:51:00,38.3,32.0,29.93,WNW,299,4.0,-999.0,77,-99.99,,,0.00,0,weatherlink.com 1.10,2013-09-26 13:51:00,
2013-09-26 07:06:00,37.7,31.0,29.93,WNW,299,5.0,-999.0,76,-99.99,,,0.00,5,weatherlink.com 1.10,2013-09-26 14:06:00,
2013-09-26 07:21:00,37.9,32.0,29.94,WNW,299,5.0,-999.0,78,-99.99,,,0.00,16,weatherlink.com 1.10,2013-09-26 14:21:00,
2013-09-26 07:36:00,38.7,32.0,29.94,WNW,298,5.0,-999.0,77,-99.99,,,0.00,30,weatherlink.com 1.10,2013-09-26 14:36:00,
2013-09-26 07:51:00,38.8,32.0,29.94,WNW,295,4.0,-999.0,76,-99.99,,,0.00,44,weatherlink.com 1.10,2013-09-26 14:51:00,
2013-09-26 08:06:00,39.4,32.0,29.95,WNW,294,5.0,-999.0,76,-99.99,,,0.00,39,weatherlink.com 1.10,2013-09-26 15:06:00,
2013-09-26 08:21:00,39.4,32.0,29.95,WNW,294,6.0,-999.0,75,-99.99,,,0.00,58,weatherlink.com 1.10,2013-09-26 15:21:00,
2013-09-26 08:36:00,40.2,33.0,29.95,WNW,294,5.0,-999.0,76,-99.99,,,0.00,192,weatherlink.com 1.10,2013-09-26 15:36:00,
2013-09-26 08:51:00,43.7,35.0,29.95,NW,313,9.0,-999.0,71,-99.99,,,0.00,392,weatherlink.com 1.10,2013-09-26 15:51:00,
2013-09-26 09:06:00,44.7,34.0,29.95,NW,321,10.0,-999.0,67,-99.99,,,0.00,265,weatherlink.com 1.10,2013-09-26 16:06:00,
2013-09-26 09:21:00,45.7,34.0,29.95,NW,304,7.0,-999.0,64,-99.99,,,0.00,381,weatherlink.com 1.10,2013-09-26 16:21:00,
2013-09-26 09:36:00,46.5,34.0,29.94,NW,321,9.0,-999.0,62,-99.99,,,0.00,457,weatherlink.com 1.10,2013-09-26 16:36:00,
2013-09-26 09:51:00,47.5,33.0,29.94,NW,316,9.0,-999.0,57,-99.99,,,0.00,485,weatherlink.com 1.10,2013-09-26 16:51:00,
2013-09-26 10:06:00,48.1,33.0,29.95,North,355,11.0,-999.0,57,-99.99,,,0.00,622,weatherlink.com 1.10,2013-09-26 17:06:00,
2013-09-26 10:21:00,47.6,33.0,29.95,NNW,344,10.0,-999.0,58,-99.99,,,0.00,142,weatherlink.com 1.10,2013-09-26 17:21:00,
2013-09-26 10:36:00,48.8,34.0,29.95,North,360,15.0,-999.0,56,-99.99,,,0.00,724,weatherlink.com 1.10,2013-09-26 17:36:00,
2013-09-26 10:51:00,49.6,33.0,29.95,WNW,295,9.0,-999.0,54,-99.99,,,0.00,163,weatherlink.com 1.10,2013-09-26 17:51:00,
2013-09-26 11:06:00,49.2,33.0,29.95,NW,311,11.0,-999.0,55,-99.99,,,0.00,770,weatherlink.com 1.10,2013-09-26 18:06:00,
2013-09-26 11:21:00,48.6,33.0,29.95,North,355,8.0,-999.0,55,-99.99,,,0.00,137,weatherlink.com 1.10,2013-09-26 18:21:00,
2013-09-26 11:36:00,50.8,34.0,29.95,NE,48,7.0,-999.0,53,-99.99,,,0.00,749,weatherlink.com 1.10,2013-09-26 18:36:00,
2013-09-26 11:51:00,49.9,35.0,29.95,NE,49,10.0,-999.0,58,-99.99,,,0.00,178,weatherlink.com 1.10,2013-09-26 18:51:00,
2013-09-26 12:06:00,51.2,36.0,29.95,ENE,59,0.0,-999.0,56,-99.99,,,0.00,803,weatherlink.com 1.10,2013-09-26 19:06:00,
2013-09-26 12:21:00,50.7,35.0,29.95,NNW,338,7.0,-999.0,56,-99.99,,,0.00,128,weatherlink.com 1.10,2013-09-26 19:21:00,
2013-09-26 12:36:00,49.4,36.0,29.96,NNE,28,5.0,-999.0,61,-99.99,,,0.00,782,weatherlink.com 1.10,2013-09-26 19:36:00,
2013-09-26 12:51:00,51.8,35.0,29.95,East,87,2.0,-999.0,53,-99.99,,,0.00,258,weatherlink.com 1.10,2013-09-26 19:51:00,
2013-09-26 13:21:00,52.0,35.0,29.95,NNE,14,4.0,-999.0,52,-99.99,,,0.00,828,weatherlink.com 1.10,2013-09-26 20:21:00,
2013-09-26 13:36:00,52.9,35.0,29.95,NNW,341,13.0,-999.0,51,-99.99,,,0.00,912,weatherlink.com 1.10,2013-09-26 20:36:00,
2013-09-26 13:51:00,51.3,34.0,29.95,NNW,344,13.0,-999.0,53,-99.99,,,0.00,271,weatherlink.com 1.10,2013-09-26 20:51:00,
2013-09-26 14:06:00,51.8,34.0,29.95,NNW,329,12.0,-999.0,52,-99.99,,,0.00,886,weatherlink.com 1.10,2013-09-26 21:06:00,
2013-09-26 14:21:00,51.0,34.0,29.95,WNW,296,12.0,-999.0,53,-99.99,,,0.00,179,weatherlink.com 1.10,2013-09-26 21:21:00,
2013-09-26 14:36:00,50.8,34.0,29.95,NW,312,8.0,-999.0,53,-99.99,,,0.00,162,weatherlink.com 1.10,2013-09-26 21:36:00,
2013-09-26 14:51:00,50.9,34.0,29.96,North,351,10.0,-999.0,53,-99.99,,,0.00,118,weatherlink.com 1.10,2013-09-26 21:51:00,
2013-09-26 15:06:00,50.9,34.0,29.96,NW,309,6.0,-999.0,52,-99.99,,,0.00,146,weatherlink.com 1.10,2013-09-26 22:06:00,
2013-09-26 15:21:00,51.3,33.0,29.96,NW,309,7.0,-999.0,50,-99.99,,,0.00,83,weatherlink.com 1.10,2013-09-26 22:21:00,
2013-09-26 15:36:00,51.2,34.0,29.96,ENE,62,10.0,-999.0,53,-99.99,,,0.00,91,weatherlink.com 1.10,2013-09-26 22:36:00,
2013-09-26 15:51:00,51.0,35.0,29.96,NNW,343,8.0,-999.0,54,-99.99,,,0.00,127,weatherlink.com 1.10,2013-09-26 22:51:00,
2013-09-26 16:06:00,51.7,33.0,29.97,NNE,12,6.0,-999.0,50,-99.99,,,0.00,149,weatherlink.com 1.10,2013-09-26 23:06:00,
2013-09-26 16:21:00,52.1,34.0,29.97,NNE,22,8.0,-999.0,51,-99.99,,,0.00,141,weatherlink.com 1.10,2013-09-26 23:21:00,
2013-09-26 16:36:00,50.2,37.0,29.97,East,95,8.0,-999.0,60,-99.99,,,0.00,77,weatherlink.com 1.10,2013-09-26 23:36:00,
2013-09-26 16:51:00,49.4,37.0,29.98,East,92,7.0,-999.0,62,-99.99,,,0.00,185,weatherlink.com 1.10,2013-09-26 23:51:00,
2013-09-26 17:06:00,48.9,36.0,29.98,ENE,74,3.0,-999.0,62,-99.99,,,0.00,54,weatherlink.com 1.10,2013-09-27 00:06:00,
2013-09-26 17:21:00,48.8,36.0,29.98,ENE,71,0.0,-999.0,62,-99.99,,,0.00,33,weatherlink.com 1.10,2013-09-27 00:21:00,
2013-09-26 17:36:00,48.8,36.0,29.98,ENE,71,0.0,-999.0,62,-99.99,,,0.00,44,weatherlink.com 1.10,2013-09-27 00:36:00,
2013-09-26 18:06:00,49.4,36.0,29.99,ENE,71,4.0,-999.0,61,-99.99,,,0.00,42,weatherlink.com 1.10,2013-09-27 01:06:00,
2013-09-26 18:21:00,49.4,36.0,30.00,ENE,71,4.0,-999.0,61,-99.99,,,0.00,11,weatherlink.com 1.10,2013-09-27 01:21:00,
2013-09-26 18:36:00,47.6,37.0,30.00,WNW,299,11.0,-999.0,67,-99.99,,,0.00,5,weatherlink.com 1.10,2013-09-27 01:36:00,
2013-09-26 18:51:00,45.7,38.0,30.01,West,262,6.0,-999.0,74,-99.99,,,0.00,0,weatherlink.com 1.10,2013-09-27 01:51:00,
2013-09-26 19:06:00,45.8,37.0,30.01,West,281,7.0,-999.0,72,-99.99,,,0.00,0,weatherlink.com 1.10,2013-09-27 02:06:00,
2013-09-26 19:21:00,46.2,37.0,30.01,West,279,6.0,-999.0,70,-99.99,,,0.00,0,weatherlink.com 1.10,2013-09-27 02:21:00,
2013-09-26 19:36:00,46.1,36.0,30.02,WNW,288,10.0,-999.0,67,-99.99,,,0.00,0,weatherlink.com 1.10,2013-09-27 02:36:00,
2013-09-26 19:51:00,45.8,35.0,30.02,WNW,298,6.0,-999.0,66,-99.99,,,0.00,0,weatherlink.com 1.10,2013-09-27 02:51:00,
2013-09-26 20:06:00,45.4,34.0,30.03,WNW,294,9.0,-999.0,65,-99.99,,,0.00,0,weatherlink.com 1.10,2013-09-27 03:06:00,
2013-09-26 20:21:00,45.0,33.0,30.03,WNW,296,5.0,-999.0,64,-99.99,,,0.00,0,weatherlink.com 1.10,2013-09-27 03:21:00,
2013-09-26 20:36:00,44.7,33.0,30.04,WNW,292,7.0,-999.0,64,-99.99,,,0.00,0,weatherlink.com 1.10,2013-09-27 03:36:00,
2013-09-26 20:51:00,44.5,33.0,30.04,WNW,286,7.0,-999.0,64,-99.99,,,0.00,0,weatherlink.com 1.10,2013-09-27 03:51:00,
2013-09-26 21:06:00,44.1,33.0,30.04,WNW,285,6.0,-999.0,64,-99.99,,,0.00,0,weatherlink.com 1.10,2013-09-27 04:06:00,
2013-09-26 21:21:00,43.5,32.0,30.04,WNW,283,9.0,-999.0,65,-99.99,,,0.00,0,weatherlink.com 1.10,2013-09-27 04:21:00,
2013-09-26 21:36:00,43.4,32.0,30.04,WNW,291,10.0,-999.0,64,-99.99,,,0.00,0,weatherlink.com 1.10,2013-09-27 04:36:00,
2013-09-26 21:51:00,43.3,32.0,30.05,WNW,289,8.0,-999.0,64,-99.99,,,0.00,0,weatherlink.com 1.10,2013-09-27 04:51:00,
2013-09-26 22:06:00,42.9,31.0,30.05,WNW,290,6.0,-999.0,64,-99.99,,,0.00,0,weatherlink.com 1.10,2013-09-27 05:06:00,
2013-09-26 22:21:00,42.8,31.0,30.06,WNW,293,7.0,-999.0,64,-99.99,,,0.00,0,weatherlink.com 1.10,2013-09-27 05:21:00,
2013-09-26 22:36:00,42.6,31.0,30.06,WNW,288,6.0,-999.0,64,-99.99,,,0.00,0,weatherlink.com 1.10,2013-09-27 05:36:00,
2013-09-26 22:51:00,42.0,31.0,30.06,WNW,289,3.0,-999.0,65,-99.99,,,0.00,0,weatherlink.com 1.10,2013-09-27 05:51:00,
2013-09-26 23:06:00,42.5,30.0,30.05,WNW,289,2.0,-999.0,62,-99.99,,,0.00,0,weatherlink.com 1.10,2013-09-27 06:06:00,
2013-09-26 23:21:00,42.3,30.0,30.05,WNW,289,5.0,-999.0,62,-99.99,,,0.00,0,weatherlink.com 1.10,2013-09-27 06:21:00,
2013-09-26 23:36:00,40.2,28.0,30.06,WSW,238,5.0,-999.0,62,-99.99,,,0.00,0,weatherlink.com 1.10,2013-09-27 06:36:00,
2013-09-26 23:51:00,38.8,28.0,30.06,SW,228,7.0,-999.0,66,-99.99,,,0.00,0,weatherlink.com 1.10,2013-09-27 06:51:00,